Time;durP1;ratioP1;P1;durP2;ratioP2;P2;SDS_P1;SDS_P2;PMS_P1;PMS_P2;Temp;Humidity;BMP_temperature;BMP_pressure;BME280_temperature;BME280_humidity;BME280_pressure;Samples;Min_cycle;Max_cycle;Signal;HPM_P1;HPM_P2
2020/12/18 00:02:00;;;;;;;13.03;9.43;;;3.60;1.00;;;;;;4874243;28;20216;-80
2020/12/18 00:04:22;;;;;;;11.23;8.87;;;3.60;1.00;;;;;;4858445;28;20260;-80
2020/12/18 00:06:48;;;;;;;12.50;9.00;;;3.60;1.00;;;;;;4876751;28;20231;-81
2020/12/18 00:09:11;;;;;;;12.00;8.67;;;3.70;1.00;;;;;;4856651;28;20754;-82
2020/12/18 00:11:33;;;;;;;13.17;9.80;;;3.70;1.00;;;;;;4877014;28;20647;-80
2020/12/18 00:13:55;;;;;;;11.50;8.87;;;3.70;1.00;;;;;;4858878;28;20636;-81
2020/12/18 00:16:17;;;;;;;15.50;9.97;;;3.70;1.00;;;;;;4858819;28;20645;-79
2020/12/18 00:18:39;;;;;;;13.43;11.07;;;3.70;1.00;;;;;;4876813;28;20246;-81
2020/12/18 00:21:02;;;;;;;13.83;9.87;;;3.70;1.00;;;;;;4877228;28;20209;-78
2020/12/18 00:23:24;;;;;;;15.00;10.13;;;3.70;1.00;;;;;;4876496;28;20250;-79
2020/12/18 00:25:48;;;;;;;12.80;9.67;;;3.70;1.00;;;;;;4858616;28;20240;-80
2020/12/18 00:28:10;;;;;;;14.57;10.23;;;3.80;1.00;;;;;;4876083;28;20616;-79
2020/12/18 00:30:32;;;;;;;16.07;11.00;;;3.70;1.00;;;;;;4876405;28;20189;-79
2020/12/18 00:32:54;;;;;;;14.90;10.00;;;3.70;1.00;;;;;;4876867;28;20275;-80
2020/12/18 00:35:16;;;;;;;12.27;9.10;;;3.70;1.00;;;;;;4876090;28;20177;-77
2020/12/18 00:37:38;;;;;;;12.70;9.53;;;3.80;1.00;;;;;;4858156;28;20256;-77
2020/12/18 00:40:03;;;;;;;14.17;10.70;;;3.80;1.00;;;;;;4875777;28;20231;-79
2020/12/18 00:42:28;;;;;;;19.40;11.90;;;3.70;1.00;;;;;;4854224;28;20233;-80
2020/12/18 00:44:53;;;;;;;15.57;11.17;;;3.80;1.00;;;;;;4873924;28;20193;-79
2020/12/18 00:47:17;;;;;;;14.43;10.53;;;3.80;1.00;;;;;;4856712;28;20656;-77
2020/12/18 00:49:41;;;;;;;16.60;11.23;;;3.80;1.00;;;;;;4834056;28;20198;-79
2020/12/18 00:52:04;;;;;;;12.70;9.83;;;3.80;1.00;;;;;;4857261;28;20193;-79
2020/12/18 00:54:26;;;;;;;13.57;10.30;;;3.70;1.00;;;;;;4870325;28;20181;-81
2020/12/18 00:56:49;;;;;;;13.50;9.77;;;3.70;1.00;;;;;;4875731;28;20594;-78
2020/12/18 00:59:21;;;;;;;11.63;8.73;;;3.70;1.00;;;;;;4875283;28;20536;-78
2020/12/18 01:01:43;;;;;;;13.37;8.43;;;3.70;1.00;;;;;;4855439;28;20217;-78
2020/12/18 01:04:08;;;;;;;11.77;8.83;;;3.90;1.00;;;;;;4857416;28;20232;-79
2020/12/18 01:06:30;;;;;;;12.33;8.60;;;3.70;1.00;;;;;;4840829;28;20222;-82
2020/12/18 01:09:00;;;;;;;11.50;8.30;;;3.70;1.00;;;;;;4857589;28;20205;-78
2020/12/18 01:11:28;;;;;;;11.40;8.20;;;3.70;1.00;;;;;;4852205;28;20255;-78
2020/12/18 01:13:51;;;;;;;12.83;8.93;;;3.70;1.00;;;;;;4857489;28;20198;-80
2020/12/18 01:16:15;;;;;;;11.77;8.50;;;3.70;1.00;;;;;;4858109;28;20202;-79
2020/12/18 01:18:45;;;;;;;12.03;8.57;;;3.70;1.00;;;;;;4857435;28;20202;-81
2020/12/18 01:21:07;;;;;;;12.80;9.37;;;3.70;1.00;;;;;;4858298;28;20259;-80
2020/12/18 01:23:34;;;;;;;12.80;9.43;;;3.70;1.00;;;;;;4858632;28;20202;-80
2020/12/18 01:26:01;;;;;;;12.30;9.00;;;3.10;1.00;;;;;;4848672;28;20202;-80
2020/12/18 01:28:24;;;;;;;12.23;8.60;;;3.70;1.00;;;;;;4875508;28;20205;-80
2020/12/18 01:30:48;;;;;;;11.73;8.40;;;3.70;1.00;;;;;;4875642;28;20185;-81
2020/12/18 01:33:11;;;;;;;11.97;9.00;;;3.70;1.00;;;;;;4841367;28;20195;-80
2020/12/18 01:35:33;;;;;;;11.87;8.50;;;3.80;1.00;;;;;;4856846;28;20578;-81
2020/12/18 01:38:00;;;;;;;12.43;8.63;;;3.80;1.00;;;;;;4857480;28;20189;-79
2020/12/18 01:40:27;;;;;;;11.23;8.60;;;3.80;1.00;;;;;;4857338;28;20256;-81
2020/12/18 01:42:49;;;;;;;12.03;8.70;;;3.80;1.00;;;;;;4850481;28;20221;-80
2020/12/18 01:45:14;;;;;;;12.37;8.87;;;3.80;1.00;;;;;;4846613;28;20546;-80
2020/12/18 01:47:55;;;;;;;13.77;10.27;;;3.80;1.00;;;;;;4875122;28;20282;-79
2020/12/18 01:50:20;;;;;;;11.73;8.23;;;3.80;1.00;;;;;;4856826;28;20648;-80
2020/12/18 01:52:50;;;;;;;12.87;9.77;;;3.80;1.00;;;;;;4878045;28;20740;-80
2020/12/18 01:55:22;;;;;;;12.37;9.23;;;3.70;1.00;;;;;;4878224;28;20867;-81
2020/12/18 01:57:45;;;;;;;11.37;8.40;;;3.70;1.00;;;;;;4859209;28;20221;-77
2020/12/18 02:00:09;;;;;;;11.57;8.50;;;3.70;1.00;;;;;;4860076;28;20649;-78
2020/12/18 02:02:37;;;;;;;11.13;8.73;;;3.70;1.00;;;;;;4876189;28;20213;-79
2020/12/18 02:05:13;;;;;;;11.20;7.97;;;3.80;1.00;;;;;;4878039;28;20663;-81
2020/12/18 02:07:38;;;;;;;11.87;9.07;;;3.70;1.00;;;;;;4860915;28;20198;-78
2020/12/18 02:10:20;;;;;;;12.63;9.57;;;3.70;1.00;;;;;;4878355;28;20197;-81
2020/12/18 02:12:42;;;;;;;12.13;9.70;;;3.70;1.00;;;;;;4860507;28;20202;-79
2020/12/18 02:15:10;;;;;;;13.43;9.40;;;3.70;1.00;;;;;;4874952;28;20247;-79
2020/12/18 02:17:54;;;;;;;14.07;9.13;;;3.70;1.00;;;;;;4878707;28;20193;-81
2020/12/18 02:20:17;;;;;;;11.40;9.43;;;3.70;1.00;;;;;;4877121;28;20621;-80
2020/12/18 02:22:47;;;;;;;14.03;9.10;;;3.70;1.00;;;;;;4859765;28;20277;-79
2020/12/18 02:25:15;;;;;;;12.07;9.33;;;3.70;1.00;;;;;;4879149;28;20200;-78
2020/12/18 02:27:39;;;;;;;11.83;9.03;;;3.70;1.00;;;;;;4861243;28;20221;-79
2020/12/18 02:30:05;;;;;;;12.40;9.10;;;3.70;1.00;;;;;;4860318;28;20481;-77
2020/12/18 02:32:32;;;;;;;12.43;9.00;;;3.70;1.00;;;;;;4850749;28;20245;-80
2020/12/18 02:35:01;;;;;;;11.87;8.93;;;3.70;1.00;;;;;;4859030;28;20206;-78
2020/12/18 02:37:30;;;;;;;12.37;9.77;;;3.70;1.00;;;;;;4856683;28;20201;-81
2020/12/18 02:39:57;;;;;;;13.07;9.60;;;3.70;1.00;;;;;;4858026;28;20206;-82
2020/12/18 02:42:51;;;;;;;13.57;9.23;;;3.70;1.00;;;;;;4857087;28;20221;-80
2020/12/18 02:45:15;;;;;;;12.03;9.07;;;3.70;1.00;;;;;;4832454;28;20195;-78
2020/12/18 02:48:00;;;;;;;12.43;9.13;;;3.80;1.00;;;;;;4870319;28;20622;-80
2020/12/18 02:50:32;;;;;;;13.67;9.87;;;3.80;1.00;;;;;;4853798;28;20260;-79
2020/12/18 02:52:54;;;;;;;10.20;8.03;;;3.80;1.00;;;;;;4878194;28;20257;-78
2020/12/18 02:55:34;;;;;;;13.90;8.77;;;3.80;1.00;;;;;;4871707;28;20231;-78
2020/12/18 02:58:06;;;;;;;13.57;10.23;;;3.80;1.00;;;;;;4877225;28;20268;-79
2020/12/18 03:00:45;;;;;;;14.20;10.63;;;3.80;1.00;;;;;;4869202;28;20200;-79
2020/12/18 03:03:08;;;;;;;10.77;8.00;;;3.90;1.00;;;;;;4877603;28;20210;-81
2020/12/18 03:05:35;;;;;;;14.13;8.97;;;3.80;1.00;;;;;;4854312;28;20205;-78
2020/12/18 03:08:03;;;;;;;15.33;9.20;;;3.90;1.00;;;;;;4876398;28;20247;-80
2020/12/18 03:10:26;;;;;;;12.27;8.97;;;3.90;1.00;;;;;;4856464;28;20241;-80
2020/12/18 03:12:49;;;;;;;14.10;9.50;;;3.90;1.00;;;;;;4859475;28;20595;-80
2020/12/18 03:15:14;;;;;;;12.67;9.17;;;4.00;1.00;;;;;;4877290;28;20590;-82
2020/12/18 03:17:52;;;;;;;13.33;9.73;;;3.90;1.00;;;;;;4858958;28;20194;-81
2020/12/18 03:20:25;;;;;;;12.53;9.37;;;3.90;1.00;;;;;;4859541;28;20674;-79
2020/12/18 03:23:13;;;;;;;13.80;10.47;;;3.90;1.00;;;;;;4873246;28;20948;-79
2020/12/18 03:26:06;;;;;;;15.93;11.27;;;3.90;1.00;;;;;;4873898;28;20286;-80
2020/12/18 03:28:34;;;;;;;12.50;10.20;;;3.90;1.00;;;;;;4854743;28;20280;-79
2020/12/18 03:30:57;;;;;;;11.53;8.87;;;4.00;1.00;;;;;;4859560;28;20250;-80
2020/12/18 03:33:20;;;;;;;13.63;9.97;;;3.90;1.00;;;;;;4859713;28;20202;-78
2020/12/18 03:35:49;;;;;;;11.93;9.47;;;3.90;1.00;;;;;;4859595;28;20624;-78
2020/12/18 03:38:13;;;;;;;11.47;9.03;;;3.90;1.00;;;;;;4859175;28;20202;-79
2020/12/18 03:40:44;;;;;;;11.97;8.70;;;3.90;1.00;;;;;;4859676;28;20202;-79
2020/12/18 03:43:17;;;;;;;11.83;8.90;;;3.90;1.00;;;;;;4876469;28;20275;-79
2020/12/18 03:45:39;;;;;;;12.37;9.33;;;3.90;1.00;;;;;;4842740;28;20194;-78
2020/12/18 03:48:22;;;;;;;13.67;10.57;;;4.00;1.00;;;;;;4876431;28;20229;-80
2020/12/18 03:50:50;;;;;;;13.70;10.37;;;4.00;1.00;;;;;;4859537;28;20206;-80
2020/12/18 03:53:19;;;;;;;12.57;9.30;;;4.00;1.00;;;;;;4876287;28;20197;-80
2020/12/18 03:55:49;;;;;;;12.20;9.03;;;4.00;1.00;;;;;;4875646;28;20197;-79
2020/12/18 03:58:30;;;;;;;13.27;9.23;;;4.00;1.00;;;;;;4876323;28;20224;-79
2020/12/18 04:01:12;;;;;;;14.00;10.40;;;4.00;1.00;;;;;;4854840;28;20763;-80
2020/12/18 04:03:35;;;;;;;13.73;9.40;;;4.00;1.00;;;;;;4876702;28;20225;-77
2020/12/18 04:06:02;;;;;;;12.07;8.97;;;4.00;1.00;;;;;;4858488;28;20629;-79
2020/12/18 04:08:24;;;;;;;11.63;9.10;;;3.90;1.00;;;;;;4858606;28;20623;-79
2020/12/18 04:11:15;;;;;;;13.00;8.97;;;3.90;1.00;;;;;;4867237;28;20659;-79
2020/12/18 04:14:03;;;;;;;12.80;9.13;;;3.90;1.00;;;;;;4858259;28;20197;-80
2020/12/18 04:16:42;;;;;;;12.27;9.53;;;3.90;1.00;;;;;;4838488;28;20241;-78
2020/12/18 04:19:09;;;;;;;13.10;9.63;;;4.00;1.00;;;;;;4858450;28;20199;-80
2020/12/18 04:21:37;;;;;;;11.97;8.87;;;4.00;1.00;;;;;;4858150;28;20201;-80
2020/12/18 04:24:11;;;;;;;11.47;8.60;;;4.00;1.00;;;;;;4875794;28;20200;-79
2020/12/18 04:26:37;;;;;;;13.33;9.50;;;4.00;1.00;;;;;;4858857;28;20201;-79
2020/12/18 04:29:00;;;;;;;14.73;10.67;;;4.00;1.00;;;;;;4875478;28;20235;-79
2020/12/18 04:31:23;;;;;;;13.97;9.90;;;4.00;1.00;;;;;;4850950;28;20198;-80
2020/12/18 04:33:47;;;;;;;11.23;8.43;;;4.00;1.00;;;;;;4857570;28;20605;-81
2020/12/18 04:36:15;;;;;;;13.03;9.37;;;4.00;1.00;;;;;;4858170;28;20641;-79
2020/12/18 04:38:38;;;;;;;11.97;7.80;;;4.00;1.00;;;;;;4876628;28;20236;-80
2020/12/18 04:41:05;;;;;;;11.37;8.30;;;4.00;1.00;;;;;;4874550;28;20248;-81
2020/12/18 04:43:37;;;;;;;10.77;7.73;;;4.00;1.00;;;;;;4858152;28;20275;-80
2020/12/18 04:46:06;;;;;;;13.30;8.87;;;3.90;1.00;;;;;;4876351;28;20247;-79
2020/12/18 04:48:36;;;;;;;13.97;9.30;;;3.90;1.00;;;;;;4855626;28;20218;-80
2020/12/18 04:50:58;;;;;;;11.07;8.50;;;4.00;1.00;;;;;;4838772;28;20199;-79
2020/12/18 04:53:34;;;;;;;11.53;8.77;;;3.80;1.00;;;;;;4838360;28;20202;-79
2020/12/18 04:56:12;;;;;;;11.70;9.37;;;3.90;1.00;;;;;;4839033;28;20253;-79
2020/12/18 04:58:54;;;;;;;13.20;9.30;;;3.80;1.00;;;;;;4857178;28;20182;-79
2020/12/18 05:01:20;;;;;;;11.27;8.17;;;3.80;1.00;;;;;;4836291;28;20562;-78
2020/12/18 05:03:55;;;;;;;10.77;8.60;;;3.80;1.00;;;;;;4835308;28;20643;-78
2020/12/18 05:06:19;;;;;;;10.73;8.57;;;3.70;1.00;;;;;;4838770;28;20201;-79
2020/12/18 05:08:43;;;;;;;11.67;8.53;;;3.70;1.00;;;;;;4838534;28;20199;-79
2020/12/18 05:11:20;;;;;;;12.40;9.10;;;3.70;1.00;;;;;;4838608;28;20198;-78
2020/12/18 05:13:48;;;;;;;11.80;8.80;;;3.70;1.00;;;;;;4836895;28;20202;-79
2020/12/18 05:16:11;;;;;;;11.17;8.20;;;3.70;1.00;;;;;;4838968;28;20198;-79
2020/12/18 05:18:39;;;;;;;12.17;8.43;;;3.70;1.00;;;;;;4856048;28;20186;-80
2020/12/18 05:21:17;;;;;;;12.30;8.17;;;3.60;1.00;;;;;;4821866;28;20250;-78
2020/12/18 05:23:55;;;;;;;12.33;8.63;;;3.60;1.00;;;;;;4838335;28;20218;-79
2020/12/18 05:26:31;;;;;;;12.53;9.57;;;3.60;1.00;;;;;;4833200;28;20194;-80
2020/12/18 05:29:07;;;;;;;13.40;9.23;;;3.50;1.00;;;;;;4838944;28;20195;-79
2020/12/18 05:31:47;;;;;;;13.53;9.47;;;3.50;1.00;;;;;;4834511;28;20202;-78
2020/12/18 05:34:15;;;;;;;13.47;9.97;;;3.50;1.00;;;;;;4829429;28;20627;-78
2020/12/18 05:36:46;;;;;;;15.87;10.83;;;3.50;1.00;;;;;;4850631;28;20202;-78
2020/12/18 05:39:13;;;;;;;14.70;11.10;;;3.50;1.00;;;;;;4856264;28;20182;-79
2020/12/18 05:41:35;;;;;;;13.87;10.20;;;3.50;1.00;;;;;;4838665;28;20237;-79
2020/12/18 05:44:05;;;;;;;13.47;10.20;;;3.50;1.00;;;;;;4839008;28;20279;-78
2020/12/18 05:46:46;;;;;;;13.43;9.93;;;3.60;1.00;;;;;;4833786;28;20665;-78
2020/12/18 05:49:31;;;;;;;16.00;11.00;;;3.60;1.00;;;;;;4853338;28;20296;-78
2020/12/18 05:52:01;;;;;;;15.83;10.50;;;3.60;1.00;;;;;;4850712;28;20706;-79
2020/12/18 05:54:38;;;;;;;16.00;10.33;;;3.60;1.00;;;;;;4857423;28;20197;-79
2020/12/18 05:57:14;;;;;;;16.43;10.60;;;3.60;1.00;;;;;;4855225;28;20241;-80
2020/12/18 05:59:44;;;;;;;14.70;10.30;;;3.60;1.00;;;;;;4835296;28;20672;-79
2020/12/18 06:02:27;;;;;;;15.77;10.93;;;3.50;1.00;;;;;;4839777;28;20229;-79
2020/12/18 06:05:01;;;;;;;15.27;11.00;;;3.50;1.00;;;;;;4857784;28;20228;-78
2020/12/18 06:07:47;;;;;;;18.00;11.30;;;3.50;1.00;;;;;;4872000;28;20189;-78
2020/12/18 06:10:22;;;;;;;15.47;10.37;;;3.50;1.00;;;;;;4856955;28;20631;-78
2020/12/18 06:13:04;;;;;;;17.27;11.40;;;3.50;1.00;;;;;;4873755;28;20256;-78
2020/12/18 06:15:48;;;;;;;17.10;11.33;;;3.50;1.00;;;;;;4840401;28;20190;-78
2020/12/18 06:18:16;;;;;;;16.23;10.97;;;3.50;1.00;;;;;;4853308;28;20205;-79
2020/12/18 06:20:44;;;;;;;16.93;11.40;;;3.60;1.00;;;;;;4874928;28;20185;-78
2020/12/18 06:23:07;;;;;;;15.57;11.30;;;3.70;1.00;;;;;;4839047;28;20276;-78
2020/12/18 06:25:54;;;;;;;16.77;10.87;;;3.60;1.00;;;;;;4856512;28;20197;-80
2020/12/18 06:28:39;;;;;;;17.10;11.20;;;3.60;1.00;;;;;;4845237;28;20257;-78
2020/12/18 06:31:26;;;;;;;15.00;11.43;;;3.60;1.00;;;;;;4847041;28;20229;-80
2020/12/18 06:34:10;;;;;;;16.57;11.47;;;3.60;1.00;;;;;;4873327;28;20224;-80
2020/12/18 06:37:00;;;;;;;19.23;11.87;;;3.60;1.00;;;;;;4857926;28;20244;-80
2020/12/18 06:39:46;;;;;;;19.40;12.20;;;3.60;1.00;;;;;;4843833;28;20203;-79
2020/12/18 06:42:35;;;;;;;23.03;12.67;;;3.60;1.00;;;;;;4871847;28;20218;-79
2020/12/18 06:45:26;;;;;;;20.83;13.13;;;3.70;1.00;;;;;;4877024;28;20193;-79
2020/12/18 06:47:57;;;;;;;17.83;11.87;;;3.60;1.00;;;;;;4878667;28;20678;-79
2020/12/18 06:50:40;;;;;;;18.90;12.07;;;3.60;1.00;;;;;;4878472;28;20236;-79
2020/12/18 06:53:15;;;;;;;17.80;11.97;;;3.60;1.00;;;;;;4878464;28;20591;-79
2020/12/18 06:55:58;;;;;;;17.97;12.43;;;3.60;1.00;;;;;;4860343;28;20248;-79
2020/12/18 06:58:44;;;;;;;18.23;12.20;;;3.70;1.00;;;;;;4853969;28;20248;-79
2020/12/18 07:01:07;;;;;;;17.20;11.40;;;3.70;1.00;;;;;;4875372;28;20181;-79
2020/12/18 07:03:40;;;;;;;17.27;11.70;;;3.70;1.00;;;;;;4877859;28;20263;-80
2020/12/18 07:06:08;;;;;;;20.53;11.27;;;3.70;1.00;;;;;;4860137;28;20197;-79
2020/12/18 07:08:31;;;;;;;16.67;10.93;;;3.70;1.00;;;;;;4855042;28;20194;-79
2020/12/18 07:11:00;;;;;;;17.23;10.27;;;3.80;1.00;;;;;;4876738;28;20899;-78
2020/12/18 07:13:22;;;;;;;16.67;10.77;;;3.70;1.00;;;;;;4877554;28;20255;-78
2020/12/18 07:15:51;;;;;;;16.00;10.67;;;3.80;1.00;;;;;;4877737;28;20647;-78
2020/12/18 07:18:15;;;;;;;13.60;9.70;;;3.80;1.00;;;;;;4877973;28;20587;-78
2020/12/18 07:20:37;;;;;;;16.87;11.80;;;3.80;1.00;;;;;;4878007;28;20185;-79
2020/12/18 07:23:02;;;;;;;20.33;12.03;;;4.20;1.00;;;;;;4878260;28;20213;-78
2020/12/18 07:25:32;;;;;;;14.37;11.00;;;3.80;1.00;;;;;;4853455;28;20203;-79
2020/12/18 07:27:54;;;;;;;17.60;11.43;;;3.80;1.00;;;;;;4878601;28;20213;-79
2020/12/18 07:30:16;;;;;;;17.20;12.47;;;3.80;1.00;;;;;;4877563;28;20185;-79
2020/12/18 07:32:39;;;;;;;15.80;10.80;;;3.80;1.00;;;;;;4877475;28;20251;-78
2020/12/18 07:35:05;;;;;;;14.67;10.10;;;3.80;1.20;;;;;;4877799;28;20603;-78
2020/12/18 07:37:29;;;;;;;14.27;9.43;;;3.90;1.00;;;;;;4878016;28;20193;-77
2020/12/18 07:39:57;;;;;;;15.10;10.47;;;3.90;1.00;;;;;;4878099;28;20693;-79
2020/12/18 07:42:19;;;;;;;14.33;10.13;;;3.90;1.00;;;;;;4877510;28;20307;-79
2020/12/18 07:44:41;;;;;;;15.63;10.70;;;4.00;1.00;;;;;;4876763;28;20231;-80
2020/12/18 07:47:04;;;;;;;15.77;11.20;;;4.00;1.00;;;;;;4859393;28;20584;-78
2020/12/18 07:49:27;;;;;;;16.13;10.23;;;4.00;1.00;;;;;;4875371;28;20243;-83
2020/12/18 07:51:49;;;;;;;15.33;10.27;;;4.00;1.00;;;;;;4876801;28;20247;-79
2020/12/18 07:54:18;;;;;;;12.37;9.60;;;4.00;1.00;;;;;;4876979;28;20247;-78
2020/12/18 07:56:41;;;;;;;15.37;9.93;;;4.10;1.00;;;;;;4876313;28;20203;-79
2020/12/18 07:59:13;;;;;;;15.67;10.57;;;4.20;1.00;;;;;;4875894;28;20200;-79
2020/12/18 08:01:39;;;;;;;13.27;10.33;;;4.20;1.00;;;;;;4869416;28;20185;-80
2020/12/18 08:04:03;;;;;;;14.17;10.50;;;4.20;1.00;;;;;;4876977;28;20615;-78
2020/12/18 08:06:33;;;;;;;12.80;9.03;;;4.20;1.00;;;;;;4876593;28;20239;-77
2020/12/18 08:08:57;;;;;;;14.37;11.33;;;4.20;1.00;;;;;;4877377;28;20204;-79
2020/12/18 08:11:24;;;;;;;15.73;10.00;;;4.30;1.00;;;;;;4876777;28;20737;-79
2020/12/18 08:13:47;;;;;;;14.50;9.60;;;4.30;1.00;;;;;;4876398;28;20186;-79
2020/12/18 08:16:17;;;;;;;12.40;9.40;;;4.30;1.00;;;;;;4875320;28;20205;-79
2020/12/18 08:18:47;;;;;;;13.43;9.60;;;4.40;1.00;;;;;;4859550;28;20189;-78
2020/12/18 08:21:14;;;;;;;12.70;9.30;;;4.40;1.00;;;;;;4877655;28;20232;-79
2020/12/18 08:23:45;;;;;;;14.70;10.40;;;4.40;1.00;;;;;;4877248;28;20205;-78
2020/12/18 08:26:09;;;;;;;13.63;10.33;;;4.50;1.00;;;;;;4877514;28;20689;-81
2020/12/18 08:28:34;;;;;;;13.47;10.00;;;4.50;1.00;;;;;;4877751;28;20623;-78
2020/12/18 08:31:05;;;;;;;12.40;9.17;;;4.60;1.00;;;;;;4877378;28;20185;-79
2020/12/18 08:33:27;;;;;;;13.33;9.43;;;4.70;1.00;;;;;;4877361;28;20182;-79
2020/12/18 08:35:53;;;;;;;12.83;10.00;;;4.70;1.00;;;;;;4877188;28;20603;-78
2020/12/18 08:38:15;;;;;;;14.80;10.13;;;4.80;1.00;;;;;;4876146;28;20185;-78
2020/12/18 08:40:42;;;;;;;13.53;9.73;;;4.90;1.00;;;;;;4876508;28;20189;-80
2020/12/18 08:43:05;;;;;;;13.43;9.97;;;4.90;1.00;;;;;;4870276;28;20225;-80
2020/12/18 08:48:06;;;;;;;16.40;9.50;;;5.10;1.00;;;;;;4767572;28;20228;-76
2020/12/18 08:50:28;;;;;;;11.43;8.53;;;5.00;1.00;;;;;;4777254;28;20215;-81
2020/12/18 08:52:52;;;;;;;14.83;10.03;;;5.00;1.00;;;;;;4747058;29;20214;-79
2020/12/18 08:55:21;;;;;;;13.03;9.17;;;5.10;1.00;;;;;;4772038;29;20256;-79
2020/12/18 08:57:45;;;;;;;12.50;9.93;;;5.20;1.00;;;;;;4747583;29;20249;-82
2020/12/18 09:00:13;;;;;;;12.37;9.23;;;5.20;1.00;;;;;;4775474;28;20232;-80
2020/12/18 09:02:39;;;;;;;14.17;10.00;;;5.30;1.00;;;;;;4777457;28;20217;-78
2020/12/18 09:05:10;;;;;;;10.80;9.13;;;5.40;1.00;;;;;;4763950;29;20197;-77
2020/12/18 09:07:42;;;;;;;13.57;10.43;;;5.50;1.00;;;;;;4780100;29;20228;-80
2020/12/18 09:10:05;;;;;;;11.37;8.90;;;5.70;1.00;;;;;;4733897;28;20196;-79
2020/12/18 09:12:28;;;;;;;11.70;9.33;;;5.80;1.00;;;;;;4771400;29;20193;-81
2020/12/18 09:15:20;;;;;;;12.77;9.10;;;5.90;99.90;;;;;;4774643;28;20204;-77
2020/12/18 09:17:44;;;;;;;10.97;8.73;;;6.00;1.00;;;;;;4771804;29;20650;-77
2020/12/18 09:20:06;;;;;;;10.83;7.90;;;6.10;1.00;;;;;;4779143;29;20197;-78
2020/12/18 09:22:30;;;;;;;11.47;8.90;;;6.20;1.00;;;;;;4733096;29;20202;-79
2020/12/18 09:25:03;;;;;;;9.77;8.20;;;6.30;99.90;;;;;;4764268;29;20236;-77
2020/12/18 09:27:26;;;;;;;10.97;9.07;;;6.30;1.00;;;;;;4781756;29;20651;-79
2020/12/18 09:29:59;;;;;;;9.60;8.13;;;6.40;99.90;;;;;;4780090;29;20196;-78
2020/12/18 09:32:21;;;;;;;11.70;8.63;;;6.40;1.00;;;;;;4748425;29;20209;-77
2020/12/18 09:34:44;;;;;;;10.43;8.13;;;6.40;1.00;;;;;;4717731;29;20250;-78
2020/12/18 09:37:11;;;;;;;13.27;9.03;;;6.50;1.00;;;;;;4779955;29;20208;-77
2020/12/18 09:39:33;;;;;;;12.13;8.87;;;7.10;1.00;;;;;;4780787;29;20196;-78
2020/12/18 09:41:55;;;;;;;12.13;8.80;;;6.40;1.00;;;;;;4780491;29;20196;-77
2020/12/18 09:44:18;;;;;;;11.80;8.67;;;6.50;1.00;;;;;;4780761;28;20267;-78
2020/12/18 09:46:41;;;;;;;11.73;9.03;;;6.50;58.70;;;;;;4767948;28;20274;-77
2020/12/18 09:49:04;;;;;;;11.03;8.50;;;6.50;99.90;;;;;;4783999;28;20230;-78
2020/12/18 09:51:26;;;;;;;11.03;8.73;;;6.60;99.90;;;;;;4812671;28;20191;-77
2020/12/18 09:53:51;;;;;;;10.53;8.30;;;6.60;1.00;;;;;;4818989;28;20614;-78
2020/12/18 09:56:15;;;;;;;10.03;8.13;;;6.60;99.90;;;;;;4803766;28;20199;-78
2020/12/18 09:58:38;;;;;;;9.37;7.80;;;6.60;99.90;;;;;;4836216;28;20194;-78
2020/12/18 10:01:01;;;;;;;9.30;8.10;;;6.70;1.00;;;;;;4831481;28;20280;-79
2020/12/18 10:03:26;;;;;;;11.87;9.50;;;6.70;1.00;;;;;;4835657;28;20256;-78
2020/12/18 10:05:49;;;;;;;10.77;8.43;;;6.70;1.00;;;;;;4816466;28;20251;-79
2020/12/18 10:08:13;;;;;;;10.63;8.57;;;6.70;1.00;;;;;;4817865;28;20199;-78
2020/12/18 10:10:37;;;;;;;10.47;8.07;;;6.80;99.90;;;;;;4819329;28;20266;-77
2020/12/18 10:12:59;;;;;;;9.63;8.57;;;6.80;99.90;;;;;;4819340;28;20242;-78
2020/12/18 10:15:23;;;;;;;9.23;7.77;;;6.80;99.90;;;;;;4839399;28;20245;-81
2020/12/18 10:17:45;;;;;;;10.73;8.50;;;6.80;99.90;;;;;;4823431;28;20187;-79
2020/12/18 10:20:08;;;;;;;10.13;8.60;;;7.00;1.00;;;;;;4839483;28;20648;-78
2020/12/18 10:22:31;;;;;;;8.93;7.77;;;7.00;1.00;;;;;;4822817;28;20194;-79
2020/12/18 10:24:53;;;;;;;11.40;9.20;;;7.20;1.00;;;;;;4822308;28;20206;-79
2020/12/18 10:27:15;;;;;;;10.13;8.20;;;7.30;1.00;;;;;;4822353;28;20250;-79
2020/12/18 10:29:38;;;;;;;8.63;7.47;;;7.40;1.00;;;;;;4821676;28;20199;-79
2020/12/18 10:32:00;;;;;;;9.13;7.83;;;7.60;43.30;;;;;;4838389;28;20241;-81
2020/12/18 10:34:23;;;;;;;9.07;7.90;;;7.60;99.90;;;;;;4819805;28;20625;-77
2020/12/18 10:36:48;;;;;;;9.20;7.70;;;7.60;1.00;;;;;;4842896;28;20224;-79
2020/12/18 10:39:12;;;;;;;9.17;8.27;;;7.60;1.00;;;;;;4819995;28;20254;-80
2020/12/18 10:41:35;;;;;;;8.10;7.23;;;7.70;1.00;;;;;;4840171;28;20191;-78
2020/12/18 10:43:58;;;;;;;10.00;7.70;;;7.70;1.00;;;;;;4838599;28;20268;-79
2020/12/18 10:46:20;;;;;;;10.27;7.57;;;7.60;1.00;;;;;;4820443;28;20635;-79
2020/12/18 10:48:42;;;;;;;10.17;8.20;;;7.60;99.90;;;;;;4839391;28;20175;-78
2020/12/18 10:51:04;;;;;;;8.23;7.17;;;7.60;99.90;;;;;;4821777;28;20221;-77
2020/12/18 10:53:29;;;;;;;8.50;7.60;;;7.60;99.90;;;;;;4840028;28;20244;-79
2020/12/18 10:55:51;;;;;;;9.03;7.83;;;7.80;1.00;;;;;;4838663;28;20187;-80
2020/12/18 10:58:14;;;;;;;8.53;7.67;;;7.70;1.00;;;;;;4821842;28;20203;-79
2020/12/18 11:00:36;;;;;;;8.63;7.67;;;7.80;99.90;;;;;;4819453;28;20238;-78
2020/12/18 11:02:59;;;;;;;8.93;7.70;;;7.90;99.90;;;;;;4839803;28;20257;-79
2020/12/18 11:05:22;;;;;;;9.10;7.50;;;8.00;99.90;;;;;;4819937;28;20223;-78
2020/12/18 11:07:44;;;;;;;9.57;7.10;;;8.00;1.00;;;;;;4804096;28;20234;-77
2020/12/18 11:10:08;;;;;;;8.83;7.60;;;8.10;1.00;;;;;;4838691;28;20648;-77
2020/12/18 11:12:30;;;;;;;9.77;7.93;;;8.10;1.00;;;;;;4805818;28;20622;-78
2020/12/18 11:14:52;;;;;;;9.07;7.17;;;8.10;1.00;;;;;;4838991;28;20187;-77
2020/12/18 11:17:14;;;;;;;7.90;7.10;;;8.00;1.00;;;;;;4837645;28;20249;-77
2020/12/18 11:19:37;;;;;;;8.27;7.47;;;8.00;1.00;;;;;;4804283;28;20746;-77
2020/12/18 11:22:00;;;;;;;10.13;7.27;;;8.00;1.00;;;;;;4821519;28;20609;-77
2020/12/18 11:24:22;;;;;;;11.20;7.80;;;8.00;1.00;;;;;;4836907;28;20226;-76
2020/12/18 11:26:50;;;;;;;10.83;7.57;;;8.00;1.00;;;;;;4820231;28;20223;-77
2020/12/18 11:29:12;;;;;;;7.97;7.17;;;8.00;1.00;;;;;;4835646;28;20319;-78
2020/12/18 11:31:40;;;;;;;9.77;7.33;;;8.00;1.00;;;;;;4820952;28;20210;-77
2020/12/18 11:34:02;;;;;;;8.23;7.37;;;8.10;1.00;;;;;;4804242;28;20614;-76
2020/12/18 11:36:25;;;;;;;8.03;7.23;;;8.10;1.00;;;;;;4837907;28;20190;-77
2020/12/18 11:38:48;;;;;;;8.37;7.47;;;8.10;1.00;;;;;;4819347;28;20257;-77
2020/12/18 11:41:10;;;;;;;8.73;7.03;;;8.20;1.00;;;;;;4820590;28;20192;-80
2020/12/18 11:43:34;;;;;;;8.03;7.10;;;8.30;1.00;;;;;;4824665;28;20218;-78
2020/12/18 11:45:56;;;;;;;9.47;7.27;;;8.40;1.00;;;;;;4834158;28;20644;-78
2020/12/18 11:48:18;;;;;;;8.13;6.13;;;8.60;1.00;;;;;;4823673;28;20230;-77
2020/12/18 11:50:40;;;;;;;7.73;6.53;;;8.70;99.90;;;;;;4822034;28;20226;-77
2020/12/18 11:53:04;;;;;;;8.70;6.13;;;8.70;99.90;;;;;;4839560;28;20191;-78
2020/12/18 11:55:27;;;;;;;8.30;6.37;;;8.80;86.20;;;;;;4805541;28;20657;-78
2020/12/18 11:57:49;;;;;;;7.87;7.07;;;8.90;43.40;;;;;;4837585;28;20207;-79
2020/12/18 12:00:12;;;;;;;7.37;6.57;;;8.90;1.00;;;;;;4838222;28;20190;-78
2020/12/18 12:02:35;;;;;;;6.47;5.87;;;8.90;1.00;;;;;;4819122;28;20242;-78
2020/12/18 12:04:57;;;;;;;7.30;6.57;;;9.00;1.00;;;;;;4820324;28;20223;-77
2020/12/18 12:07:19;;;;;;;6.33;5.70;;;9.20;1.00;;;;;;4820666;28;20265;-80
2020/12/18 12:09:42;;;;;;;6.60;5.90;;;9.30;1.00;;;;;;4819995;28;20258;-79
2020/12/18 12:12:04;;;;;;;8.77;6.53;;;9.30;1.00;;;;;;4837298;28;20191;-78
2020/12/18 12:14:26;;;;;;;6.80;6.13;;;9.50;1.00;;;;;;4835949;28;20202;-79
2020/12/18 12:16:49;;;;;;;5.47;4.97;;;9.70;1.00;;;;;;4804356;28;20720;-78
2020/12/18 12:19:11;;;;;;;6.13;5.57;;;9.80;1.00;;;;;;4819023;28;20199;-78
2020/12/18 12:21:34;;;;;;;7.03;5.63;;;9.90;1.00;;;;;;4804492;28;20200;-78
2020/12/18 12:23:56;;;;;;;5.87;4.73;;;10.00;99.90;;;;;;4836688;28;20272;-79
2020/12/18 12:26:18;;;;;;;6.20;5.00;;;10.20;99.90;;;;;;4820230;28;20196;-78
2020/12/18 12:28:40;;;;;;;5.50;5.00;;;10.20;99.90;;;;;;4836929;28;20195;-78
2020/12/18 12:31:03;;;;;;;5.47;4.97;;;10.20;99.90;;;;;;4819750;28;20187;-78
2020/12/18 12:33:26;;;;;;;5.43;4.80;;;10.20;99.90;;;;;;4814165;28;20778;-80
2020/12/18 12:35:48;;;;;;;6.30;5.30;;;10.20;99.90;;;;;;4837046;28;20199;-80
2020/12/18 12:38:12;;;;;;;5.47;4.97;;;10.30;99.90;;;;;;4819360;28;20242;-79
2020/12/18 12:40:34;;;;;;;5.77;5.27;;;10.40;99.90;;;;;;4819216;28;21005;-79
2020/12/18 12:42:56;;;;;;;5.50;5.00;;;10.40;99.90;;;;;;4837791;28;20179;-78
2020/12/18 12:45:18;;;;;;;5.33;4.80;;;10.50;99.90;;;;;;4819516;28;20223;-79
2020/12/18 12:47:41;;;;;;;5.87;5.33;;;10.50;95.20;;;;;;4818933;28;20274;-81
2020/12/18 12:50:05;;;;;;;6.57;4.77;;;10.50;27.30;;;;;;4817800;28;20191;-77
2020/12/18 12:52:28;;;;;;;5.57;4.97;;;10.50;1.00;;;;;;4804086;28;20320;-81
2020/12/18 12:54:50;;;;;;;5.27;4.77;;;10.40;1.00;;;;;;4819566;28;20616;-76
2020/12/18 12:57:12;;;;;;;5.27;4.83;;;10.30;6.70;;;;;;4837570;28;20656;-81
2020/12/18 12:59:34;;;;;;;5.77;5.23;;;10.20;97.30;;;;;;4819136;28;20620;-77